sensor_id;sensor_type;location;lat;lon;timestamp;temperature;humidity
25170;DHT22;13129;48.012;10.352;2024-02-26T04:30:10;3.40;99.90
25170;DHT22;13129;48.012;10.352;2024-02-26T04:32:35;3.30;99.90
25170;DHT22;13129;48.012;10.352;2024-02-26T04:35:04;3.30;99.90
25170;DHT22;13129;48.012;10.352;2024-02-26T04:37:29;3.30;99.90
25170;DHT22;13129;48.012;10.352;2024-02-26T04:39:59;3.30;99.90
25170;DHT22;13129;48.012;10.352;2024-02-26T04:42:25;3.20;99.90
25170;DHT22;13129;48.012;10.352;2024-02-26T04:44:50;3.30;99.90
25170;DHT22;13129;48.012;10.352;2024-02-26T04:47:16;3.30;99.90
25170;DHT22;13129;48.012;10.352;2024-02-26T04:49:41;3.20;99.90
25170;DHT22;13129;48.012;10.352;2024-02-26T04:52:07;3.40;99.90
25170;DHT22;13129;48.012;10.352;2024-02-26T04:54:33;3.20;99.90
25170;DHT22;13129;48.012;10.352;2024-02-26T04:56:58;3.30;99.90
25170;DHT22;13129;48.012;10.352;2024-02-26T04:59:24;3.30;99.90
25170;DHT22;13129;48.012;10.352;2024-02-26T05:01:49;3.30;99.90
25170;DHT22;13129;48.012;10.352;2024-02-26T05:04:16;3.30;99.90
25170;DHT22;13129;48.012;10.352;2024-02-26T05:06:42;3.30;99.90
25170;DHT22;13129;48.012;10.352;2024-02-26T05:09:07;3.40;99.90
25170;DHT22;13129;48.012;10.352;2024-02-26T05:11:33;3.40;99.90
25170;DHT22;13129;48.012;10.352;2024-02-26T05:13:59;3.40;99.90
25170;DHT22;13129;48.012;10.352;2024-02-26T05:16:26;3.40;99.90
25170;DHT22;13129;48.012;10.352;2024-02-26T05:18:52;3.40;99.90
25170;DHT22;13129;48.012;10.352;2024-02-26T05:21:18;3.40;99.90
25170;DHT22;13129;48.012;10.352;2024-02-26T05:23:43;3.40;99.90
25170;DHT22;13129;48.012;10.352;2024-02-26T05:26:09;3.40;99.90
25170;DHT22;13129;48.012;10.352;2024-02-26T05:28:34;3.40;99.90
25170;DHT22;13129;48.012;10.352;2024-02-26T05:31:00;3.40;99.90
25170;DHT22;13129;48.012;10.352;2024-02-26T05:33:25;3.40;99.90
25170;DHT22;13129;48.012;10.352;2024-02-26T05:35:51;3.40;99.90
25170;DHT22;13129;48.012;10.352;2024-02-26T05:38:16;3.40;99.90
25170;DHT22;13129;48.012;10.352;2024-02-26T05:40:42;3.40;99.90
25170;DHT22;13129;48.012;10.352;2024-02-26T05:43:07;3.50;99.90
25170;DHT22;13129;48.012;10.352;2024-02-26T05:45:33;3.50;99.90
25170;DHT22;13129;48.012;10.352;2024-02-26T05:47:59;3.50;99.90
25170;DHT22;13129;48.012;10.352;2024-02-26T05:50:24;3.50;99.90
25170;DHT22;13129;48.012;10.352;2024-02-26T05:52:50;3.50;99.90
25170;DHT22;13129;48.012;10.352;2024-02-26T05:55:16;3.60;99.90
25170;DHT22;13129;48.012;10.352;2024-02-26T05:57:41;3.70;99.90
25170;DHT22;13129;48.012;10.352;2024-02-26T06:00:07;3.60;99.90
25170;DHT22;13129;48.012;10.352;2024-02-26T06:02:35;3.70;99.90
25170;DHT22;13129;48.012;10.352;2024-02-26T06:05:00;3.70;99.90
25170;DHT22;13129;48.012;10.352;2024-02-26T06:07:26;3.70;99.90
25170;DHT22;13129;48.012;10.352;2024-02-26T06:09:51;3.80;99.90
25170;DHT22;13129;48.012;10.352;2024-02-26T06:12:17;3.80;99.90
25170;DHT22;13129;48.012;10.352;2024-02-26T06:14:42;3.80;99.90
25170;DHT22;13129;48.012;10.352;2024-02-26T06:17:08;3.90;99.90
25170;DHT22;13129;48.012;10.352;2024-02-26T06:19:33;3.90;99.90
25170;DHT22;13129;48.012;10.352;2024-02-26T06:21:59;4.00;99.90
25170;DHT22;13129;48.012;10.352;2024-02-26T06:24:24;4.00;99.90
25170;DHT22;13129;48.012;10.352;2024-02-26T06:26:50;4.00;99.90
25170;DHT22;13129;48.012;10.352;2024-02-26T06:29:15;4.10;99.90
25170;DHT22;13129;48.012;10.352;2024-02-26T06:31:41;4.00;99.90
25170;DHT22;13129;48.012;10.352;2024-02-26T06:34:06;4.10;99.90
25170;DHT22;13129;48.012;10.352;2024-02-26T06:36:32;4.10;99.90
25170;DHT22;13129;48.012;10.352;2024-02-26T06:38:58;4.30;99.90
25170;DHT22;13129;48.012;10.352;2024-02-26T06:41:23;4.20;99.90
25170;DHT22;13129;48.012;10.352;2024-02-26T06:43:53;4.30;99.90
25170;DHT22;13129;48.012;10.352;2024-02-26T06:46:19;4.30;99.90
25170;DHT22;13129;48.012;10.352;2024-02-26T06:48:44;4.30;99.90
25170;DHT22;13129;48.012;10.352;2024-02-26T06:51:10;4.30;99.90
25170;DHT22;13129;48.012;10.352;2024-02-26T06:53:35;4.50;99.90
25170;DHT22;13129;48.012;10.352;2024-02-26T06:56:00;4.60;99.90
25170;DHT22;13129;48.012;10.352;2024-02-26T06:58:26;4.70;99.90
25170;DHT22;13129;48.012;10.352;2024-02-26T07:00:51;4.90;99.90
25170;DHT22;13129;48.012;10.352;2024-02-26T07:03:17;5.00;99.90
25170;DHT22;13129;48.012;10.352;2024-02-26T07:05:42;5.20;99.90
25170;DHT22;13129;48.012;10.352;2024-02-26T07:08:10;5.20;99.90
25170;DHT22;13129;48.012;10.352;2024-02-26T07:10:35;5.30;99.90
25170;DHT22;13129;48.012;10.352;2024-02-26T07:13:01;5.50;99.90
25170;DHT22;13129;48.012;10.352;2024-02-26T07:15:26;5.80;99.90
25170;DHT22;13129;48.012;10.352;2024-02-26T07:17:52;5.90;99.90
25170;DHT22;13129;48.012;10.352;2024-02-26T07:20:17;6.00;99.90
25170;DHT22;13129;48.012;10.352;2024-02-26T07:22:43;6.20;99.90
25170;DHT22;13129;48.012;10.352;2024-02-26T07:25:09;6.50;99.90
25170;DHT22;13129;48.012;10.352;2024-02-26T07:27:38;6.80;99.90
25170;DHT22;13129;48.012;10.352;2024-02-26T07:30:04;7.00;99.90
25170;DHT22;13129;48.012;10.352;2024-02-26T07:32:30;7.20;99.90
25170;DHT22;13129;48.012;10.352;2024-02-26T07:34:55;7.40;99.90
25170;DHT22;13129;48.012;10.352;2024-02-26T07:37:20;7.50;99.90
25170;DHT22;13129;48.012;10.352;2024-02-26T07:39:46;7.60;99.90
25170;DHT22;13129;48.012;10.352;2024-02-26T07:42:12;7.70;99.90
25170;DHT22;13129;48.012;10.352;2024-02-26T07:44:37;7.70;99.90
25170;DHT22;13129;48.012;10.352;2024-02-26T07:47:03;7.80;99.90
25170;DHT22;13129;48.012;10.352;2024-02-26T07:49:29;7.80;99.90
25170;DHT22;13129;48.012;10.352;2024-02-26T07:51:54;7.80;99.90
25170;DHT22;13129;48.012;10.352;2024-02-26T07:54:23;7.80;99.90
25170;DHT22;13129;48.012;10.352;2024-02-26T07:56:48;7.80;99.90
25170;DHT22;13129;48.012;10.352;2024-02-26T07:59:14;7.90;99.90
25170;DHT22;13129;48.012;10.352;2024-02-26T08:01:39;7.80;99.90
25170;DHT22;13129;48.012;10.352;2024-02-26T08:04:06;7.80;99.90
25170;DHT22;13129;48.012;10.352;2024-02-26T08:06:32;7.80;99.90
25170;DHT22;13129;48.012;10.352;2024-02-26T08:09:00;7.90;99.90
25170;DHT22;13129;48.012;10.352;2024-02-26T08:11:26;8.10;99.90
25170;DHT22;13129;48.012;10.352;2024-02-26T08:13:53;8.30;99.90
25170;DHT22;13129;48.012;10.352;2024-02-26T08:16:18;8.50;99.90
25170;DHT22;13129;48.012;10.352;2024-02-26T08:18:44;8.70;99.90
25170;DHT22;13129;48.012;10.352;2024-02-26T08:21:09;8.90;99.90
25170;DHT22;13129;48.012;10.352;2024-02-26T08:23:35;8.90;99.90
25170;DHT22;13129;48.012;10.352;2024-02-26T08:26:00;9.20;99.90
25170;DHT22;13129;48.012;10.352;2024-02-26T08:28:26;9.40;99.90
25170;DHT22;13129;48.012;10.352;2024-02-26T08:30:51;9.50;99.90
25170;DHT22;13129;48.012;10.352;2024-02-26T08:33:17;9.50;99.90
25170;DHT22;13129;48.012;10.352;2024-02-26T08:35:42;9.60;99.90
25170;DHT22;13129;48.012;10.352;2024-02-26T08:38:08;9.60;99.90
25170;DHT22;13129;48.012;10.352;2024-02-26T08:40:33;9.60;99.90
25170;DHT22;13129;48.012;10.352;2024-02-26T08:42:59;9.70;99.90
25170;DHT22;13129;48.012;10.352;2024-02-26T08:45:24;9.80;99.90
25170;DHT22;13129;48.012;10.352;2024-02-26T08:47:52;9.90;99.90
25170;DHT22;13129;48.012;10.352;2024-02-26T08:50:18;10.10;99.90
25170;DHT22;13129;48.012;10.352;2024-02-26T08:52:43;10.20;99.90
25170;DHT22;13129;48.012;10.352;2024-02-26T08:55:09;10.20;99.90
25170;DHT22;13129;48.012;10.352;2024-02-26T08:57:38;10.30;99.50
25170;DHT22;13129;48.012;10.352;2024-02-26T09:00:04;10.30;99.40
25170;DHT22;13129;48.012;10.352;2024-02-26T09:02:29;10.40;98.90
25170;DHT22;13129;48.012;10.352;2024-02-26T09:04:55;10.50;99.00
25170;DHT22;13129;48.012;10.352;2024-02-26T09:07:22;10.60;98.80
25170;DHT22;13129;48.012;10.352;2024-02-26T09:09:47;10.60;98.80
25170;DHT22;13129;48.012;10.352;2024-02-26T09:12:13;10.60;98.80
25170;DHT22;13129;48.012;10.352;2024-02-26T09:14:38;10.60;98.70
25170;DHT22;13129;48.012;10.352;2024-02-26T09:17:04;10.60;98.60
25170;DHT22;13129;48.012;10.352;2024-02-26T09:19:33;10.50;98.40
25170;DHT22;13129;48.012;10.352;2024-02-26T09:22:12;10.60;98.60
25170;DHT22;13129;48.012;10.352;2024-02-26T09:24:46;10.60;98.30
25170;DHT22;13129;48.012;10.352;2024-02-26T09:27:12;10.80;98.40
25170;DHT22;13129;48.012;10.352;2024-02-26T09:29:37;10.80;98.10
25170;DHT22;13129;48.012;10.352;2024-02-26T09:32:03;10.90;98.10
25170;DHT22;13129;48.012;10.352;2024-02-26T09:34:35;10.90;97.80
25170;DHT22;13129;48.012;10.352;2024-02-26T09:37:09;11.00;97.80
25170;DHT22;13129;48.012;10.352;2024-02-26T09:39:35;11.00;97.60
25170;DHT22;13129;48.012;10.352;2024-02-26T09:42:01;11.10;97.50
25170;DHT22;13129;48.012;10.352;2024-02-26T09:44:28;11.10;97.40
25170;DHT22;13129;48.012;10.352;2024-02-26T09:46:55;11.30;97.40
25170;DHT22;13129;48.012;10.352;2024-02-26T09:49:21;11.40;97.30
25170;DHT22;13129;48.012;10.352;2024-02-26T09:51:49;11.50;97.20
25170;DHT22;13129;48.012;10.352;2024-02-26T09:54:15;11.60;96.90
25170;DHT22;13129;48.012;10.352;2024-02-26T09:56:40;11.60;96.70
25170;DHT22;13129;48.012;10.352;2024-02-26T09:59:09;11.50;96.70
25170;DHT22;13129;48.012;10.352;2024-02-26T10:01:35;11.40;96.60
25170;DHT22;13129;48.012;10.352;2024-02-26T10:04:01;11.20;96.70
25170;DHT22;13129;48.012;10.352;2024-02-26T10:06:28;11.00;96.80
25170;DHT22;13129;48.012;10.352;2024-02-26T10:08:54;10.90;96.90
25170;DHT22;13129;48.012;10.352;2024-02-26T10:11:20;10.80;97.10
25170;DHT22;13129;48.012;10.352;2024-02-26T10:13:46;10.80;97.30
25170;DHT22;13129;48.012;10.352;2024-02-26T10:16:11;10.90;97.40
25170;DHT22;13129;48.012;10.352;2024-02-26T10:18:50;11.30;97.50
25170;DHT22;13129;48.012;10.352;2024-02-26T10:24:33;13.00;96.20
25170;DHT22;13129;48.012;10.352;2024-02-26T10:26:59;15.00;94.10
25170;DHT22;13129;48.012;10.352;2024-02-26T10:29:25;17.20;92.10
25170;DHT22;13129;48.012;10.352;2024-02-26T10:31:51;19.60;86.20
25170;DHT22;13129;48.012;10.352;2024-02-26T10:34:17;21.80;75.30
25170;DHT22;13129;48.012;10.352;2024-02-26T10:36:42;23.40;65.00
25170;DHT22;13129;48.012;10.352;2024-02-26T10:39:09;24.20;60.90
25170;DHT22;13129;48.012;10.352;2024-02-26T10:41:35;24.70;56.90
25170;DHT22;13129;48.012;10.352;2024-02-26T10:44:00;24.30;55.50
25170;DHT22;13129;48.012;10.352;2024-02-26T10:46:26;23.80;55.60
25170;DHT22;13129;48.012;10.352;2024-02-26T10:48:52;23.10;55.30
25170;DHT22;13129;48.012;10.352;2024-02-26T10:51:28;22.20;56.80
25170;DHT22;13129;48.012;10.352;2024-02-26T10:53:57;21.30;57.30
25170;DHT22;13129;48.012;10.352;2024-02-26T10:56:24;20.50;58.40
25170;DHT22;13129;48.012;10.352;2024-02-26T10:58:51;19.70;60.00
25170;DHT22;13129;48.012;10.352;2024-02-26T11:01:17;19.00;61.70
25170;DHT22;13129;48.012;10.352;2024-02-26T11:03:44;18.50;62.20
25170;DHT22;13129;48.012;10.352;2024-02-26T11:06:10;18.40;62.60
25170;DHT22;13129;48.012;10.352;2024-02-26T11:08:36;18.60;62.20
25170;DHT22;13129;48.012;10.352;2024-02-26T11:11:02;19.20;61.00
25170;DHT22;13129;48.012;10.352;2024-02-26T11:13:28;19.40;59.70
25170;DHT22;13129;48.012;10.352;2024-02-26T11:15:55;19.40;59.50
25170;DHT22;13129;48.012;10.352;2024-02-26T11:18:23;19.00;59.80
25170;DHT22;13129;48.012;10.352;2024-02-26T11:20:49;18.40;60.30
25170;DHT22;13129;48.012;10.352;2024-02-26T11:23:15;18.60;60.60
25170;DHT22;13129;48.012;10.352;2024-02-26T11:25:41;19.20;59.70
25170;DHT22;13129;48.012;10.352;2024-02-26T11:28:08;20.40;59.10
25170;DHT22;13129;48.012;10.352;2024-02-26T11:30:36;21.70;56.00
25170;DHT22;13129;48.012;10.352;2024-02-26T11:33:03;22.80;54.60
25170;DHT22;13129;48.012;10.352;2024-02-26T11:35:29;23.40;53.70
25170;DHT22;13129;48.012;10.352;2024-02-26T11:37:55;23.60;52.40
25170;DHT22;13129;48.012;10.352;2024-02-26T11:40:24;22.70;52.70
25170;DHT22;13129;48.012;10.352;2024-02-26T11:42:51;21.20;53.90
25170;DHT22;13129;48.012;10.352;2024-02-26T11:48:02;18.10;59.20
25170;DHT22;13129;48.012;10.352;2024-02-26T11:51:01;17.00;62.50
25170;DHT22;13129;48.012;10.352;2024-02-26T11:53:27;16.20;64.50
25170;DHT22;13129;48.012;10.352;2024-02-26T11:58:38;15.20;66.90
25170;DHT22;13129;48.012;10.352;2024-02-26T12:01:04;14.90;67.70
25170;DHT22;13129;48.012;10.352;2024-02-26T12:03:29;14.40;69.50
25170;DHT22;13129;48.012;10.352;2024-02-26T12:05:56;14.10;69.80
25170;DHT22;13129;48.012;10.352;2024-02-26T12:08:21;13.80;71.00
25170;DHT22;13129;48.012;10.352;2024-02-26T12:10:48;13.20;71.20
25170;DHT22;13129;48.012;10.352;2024-02-26T12:13:14;13.00;72.90
25170;DHT22;13129;48.012;10.352;2024-02-26T12:15:44;12.80;73.70
25170;DHT22;13129;48.012;10.352;2024-02-26T12:18:10;12.60;74.60
25170;DHT22;13129;48.012;10.352;2024-02-26T12:20:40;12.40;75.40
25170;DHT22;13129;48.012;10.352;2024-02-26T12:23:06;12.20;76.00
25170;DHT22;13129;48.012;10.352;2024-02-26T12:25:31;12.00;76.60
25170;DHT22;13129;48.012;10.352;2024-02-26T12:27:58;11.80;77.30
25170;DHT22;13129;48.012;10.352;2024-02-26T12:30:24;11.70;78.80
25170;DHT22;13129;48.012;10.352;2024-02-26T12:32:51;11.60;79.40
25170;DHT22;13129;48.012;10.352;2024-02-26T12:35:17;11.60;79.50
25170;DHT22;13129;48.012;10.352;2024-02-26T12:37:43;11.60;79.80
25170;DHT22;13129;48.012;10.352;2024-02-26T12:40:09;11.60;80.40
25170;DHT22;13129;48.012;10.352;2024-02-26T12:42:34;11.60;80.80
25170;DHT22;13129;48.012;10.352;2024-02-26T12:45:06;11.60;81.10
25170;DHT22;13129;48.012;10.352;2024-02-26T12:47:39;11.60;81.60
25170;DHT22;13129;48.012;10.352;2024-02-26T12:50:04;11.70;82.00
25170;DHT22;13129;48.012;10.352;2024-02-26T12:52:34;11.70;82.10
25170;DHT22;13129;48.012;10.352;2024-02-26T12:55:02;11.70;82.70
25170;DHT22;13129;48.012;10.352;2024-02-26T12:57:31;11.70;83.20
25170;DHT22;13129;48.012;10.352;2024-02-26T12:59:57;11.70;83.40
25170;DHT22;13129;48.012;10.352;2024-02-26T13:02:23;11.70;83.90
25170;DHT22;13129;48.012;10.352;2024-02-26T13:04:49;11.50;84.10
25170;DHT22;13129;48.012;10.352;2024-02-26T13:07:14;11.40;84.80
25170;DHT22;13129;48.012;10.352;2024-02-26T13:09:40;11.40;85.20
25170;DHT22;13129;48.012;10.352;2024-02-26T13:12:06;11.30;85.80
25170;DHT22;13129;48.012;10.352;2024-02-26T13:14:32;11.20;86.00
25170;DHT22;13129;48.012;10.352;2024-02-26T13:16:59;11.10;86.50
25170;DHT22;13129;48.012;10.352;2024-02-26T13:19:25;11.00;87.00
25170;DHT22;13129;48.012;10.352;2024-02-26T13:21:50;10.90;87.50
25170;DHT22;13129;48.012;10.352;2024-02-26T13:24:16;10.80;87.70
25170;DHT22;13129;48.012;10.352;2024-02-26T13:26:43;10.70;88.20
25170;DHT22;13129;48.012;10.352;2024-02-26T13:29:08;10.70;88.90
25170;DHT22;13129;48.012;10.352;2024-02-26T13:31:40;10.60;88.90
25170;DHT22;13129;48.012;10.352;2024-02-26T13:34:05;10.60;88.90
25170;DHT22;13129;48.012;10.352;2024-02-26T13:36:31;10.60;89.20
25170;DHT22;13129;48.012;10.352;2024-02-26T13:38:57;10.60;89.70
25170;DHT22;13129;48.012;10.352;2024-02-26T13:41:22;10.50;90.10
25170;DHT22;13129;48.012;10.352;2024-02-26T13:43:48;10.50;90.50
25170;DHT22;13129;48.012;10.352;2024-02-26T13:46:14;10.50;90.60
25170;DHT22;13129;48.012;10.352;2024-02-26T13:48:41;10.60;90.60
25170;DHT22;13129;48.012;10.352;2024-02-26T13:51:06;10.60;90.60
25170;DHT22;13129;48.012;10.352;2024-02-26T13:53:32;10.60;90.70
25170;DHT22;13129;48.012;10.352;2024-02-26T13:55:57;10.60;90.90
25170;DHT22;13129;48.012;10.352;2024-02-26T13:58:24;10.60;91.10
25170;DHT22;13129;48.012;10.352;2024-02-26T14:00:50;10.60;91.40
25170;DHT22;13129;48.012;10.352;2024-02-26T14:03:16;10.60;91.40
25170;DHT22;13129;48.012;10.352;2024-02-26T14:05:41;10.70;91.50
25170;DHT22;13129;48.012;10.352;2024-02-26T14:08:07;10.70;91.60
25170;DHT22;13129;48.012;10.352;2024-02-26T14:10:33;10.60;91.60
25170;DHT22;13129;48.012;10.352;2024-02-26T14:12:58;10.60;91.70
25170;DHT22;13129;48.012;10.352;2024-02-26T14:15:24;10.60;91.80
25170;DHT22;13129;48.012;10.352;2024-02-26T14:17:50;10.50;92.00
25170;DHT22;13129;48.012;10.352;2024-02-26T14:20:20;10.50;92.10
25170;DHT22;13129;48.012;10.352;2024-02-26T14:22:45;10.50;92.30
25170;DHT22;13129;48.012;10.352;2024-02-26T14:25:11;10.40;92.50
25170;DHT22;13129;48.012;10.352;2024-02-26T14:27:36;10.40;92.70
25170;DHT22;13129;48.012;10.352;2024-02-26T14:30:02;10.30;92.80
25170;DHT22;13129;48.012;10.352;2024-02-26T14:32:28;10.20;93.00
25170;DHT22;13129;48.012;10.352;2024-02-26T14:34:53;10.20;93.10
25170;DHT22;13129;48.012;10.352;2024-02-26T14:37:18;10.20;93.40
25170;DHT22;13129;48.012;10.352;2024-02-26T14:39:44;10.10;93.40
25170;DHT22;13129;48.012;10.352;2024-02-26T14:42:09;10.10;93.50
25170;DHT22;13129;48.012;10.352;2024-02-26T14:44:35;10.00;93.60
25170;DHT22;13129;48.012;10.352;2024-02-26T14:47:00;9.90;93.80
25170;DHT22;13129;48.012;10.352;2024-02-26T14:51:29;9.80;94.00
25170;DHT22;13129;48.012;10.352;2024-02-26T14:54:15;9.70;94.50
25170;DHT22;13129;48.012;10.352;2024-02-26T14:56:40;9.70;95.10
25170;DHT22;13129;48.012;10.352;2024-02-26T14:59:06;9.60;95.60
25170;DHT22;13129;48.012;10.352;2024-02-26T15:01:32;9.60;96.00
25170;DHT22;13129;48.012;10.352;2024-02-26T15:03:58;9.50;96.60
25170;DHT22;13129;48.012;10.352;2024-02-26T15:06:25;9.40;97.30
25170;DHT22;13129;48.012;10.352;2024-02-26T15:08:51;9.40;97.80
25170;DHT22;13129;48.012;10.352;2024-02-26T15:11:17;9.40;98.30
25170;DHT22;13129;48.012;10.352;2024-02-26T15:13:43;9.40;98.80
25170;DHT22;13129;48.012;10.352;2024-02-26T15:16:08;9.40;99.00
25170;DHT22;13129;48.012;10.352;2024-02-26T15:18:36;9.40;99.40
25170;DHT22;13129;48.012;10.352;2024-02-26T15:21:02;9.40;99.50
25170;DHT22;13129;48.012;10.352;2024-02-26T15:23:28;9.40;99.50
25170;DHT22;13129;48.012;10.352;2024-02-26T15:25:54;9.40;99.30
25170;DHT22;13129;48.012;10.352;2024-02-26T15:28:19;9.50;99.00
25170;DHT22;13129;48.012;10.352;2024-02-26T15:30:45;9.50;98.50
25170;DHT22;13129;48.012;10.352;2024-02-26T15:33:10;9.60;98.40
25170;DHT22;13129;48.012;10.352;2024-02-26T15:35:37;9.50;98.30
25170;DHT22;13129;48.012;10.352;2024-02-26T15:38:03;9.50;98.30
25170;DHT22;13129;48.012;10.352;2024-02-26T15:40:29;9.50;98.20
25170;DHT22;13129;48.012;10.352;2024-02-26T15:42:54;9.50;98.20
25170;DHT22;13129;48.012;10.352;2024-02-26T15:45:20;9.40;98.10
25170;DHT22;13129;48.012;10.352;2024-02-26T15:47:46;9.40;98.00
25170;DHT22;13129;48.012;10.352;2024-02-26T15:50:12;9.40;98.00
25170;DHT22;13129;48.012;10.352;2024-02-26T15:52:39;9.40;98.00
25170;DHT22;13129;48.012;10.352;2024-02-26T15:55:05;9.30;98.00
25170;DHT22;13129;48.012;10.352;2024-02-26T15:57:31;9.30;98.00
25170;DHT22;13129;48.012;10.352;2024-02-26T15:59:56;9.30;98.00
25170;DHT22;13129;48.012;10.352;2024-02-26T16:02:27;9.30;98.00
25170;DHT22;13129;48.012;10.352;2024-02-26T16:04:53;9.30;98.20
25170;DHT22;13129;48.012;10.352;2024-02-26T16:07:30;9.30;97.90
25170;DHT22;13129;48.012;10.352;2024-02-26T16:09:56;9.30;98.00
25170;DHT22;13129;48.012;10.352;2024-02-26T16:12:41;9.20;98.10
25170;DHT22;13129;48.012;10.352;2024-02-26T16:15:08;9.20;98.10
25170;DHT22;13129;48.012;10.352;2024-02-26T16:17:43;9.20;98.30
25170;DHT22;13129;48.012;10.352;2024-02-26T16:20:16;9.20;98.40
25170;DHT22;13129;48.012;10.352;2024-02-26T16:22:44;9.10;98.30
25170;DHT22;13129;48.012;10.352;2024-02-26T16:25:09;9.10;98.30
25170;DHT22;13129;48.012;10.352;2024-02-26T16:27:35;9.10;98.20
25170;DHT22;13129;48.012;10.352;2024-02-26T16:30:02;9.10;98.10
25170;DHT22;13129;48.012;10.352;2024-02-26T16:32:30;9.10;98.10
25170;DHT22;13129;48.012;10.352;2024-02-26T16:34:58;9.00;98.10
25170;DHT22;13129;48.012;10.352;2024-02-26T16:37:24;9.00;98.30
25170;DHT22;13129;48.012;10.352;2024-02-26T16:39:50;9.00;98.40
25170;DHT22;13129;48.012;10.352;2024-02-26T16:42:16;8.90;98.50
25170;DHT22;13129;48.012;10.352;2024-02-26T16:44:43;8.90;98.60
25170;DHT22;13129;48.012;10.352;2024-02-26T16:47:09;8.90;98.60
25170;DHT22;13129;48.012;10.352;2024-02-26T16:49:35;8.90;98.50
25170;DHT22;13129;48.012;10.352;2024-02-26T16:52:01;8.90;98.50
25170;DHT22;13129;48.012;10.352;2024-02-26T16:54:28;8.80;98.40
25170;DHT22;13129;48.012;10.352;2024-02-26T16:56:54;8.80;98.40
25170;DHT22;13129;48.012;10.352;2024-02-26T16:59:20;8.80;98.40
25170;DHT22;13129;48.012;10.352;2024-02-26T17:01:47;8.70;98.50
25170;DHT22;13129;48.012;10.352;2024-02-26T17:04:13;8.70;98.60
25170;DHT22;13129;48.012;10.352;2024-02-26T17:06:38;8.60;98.70
25170;DHT22;13129;48.012;10.352;2024-02-26T17:09:04;8.70;98.80
25170;DHT22;13129;48.012;10.352;2024-02-26T17:11:31;8.60;98.80
25170;DHT22;13129;48.012;10.352;2024-02-26T17:13:58;8.60;99.10
25170;DHT22;13129;48.012;10.352;2024-02-26T17:16:24;8.50;99.20
25170;DHT22;13129;48.012;10.352;2024-02-26T17:18:50;8.50;99.40
25170;DHT22;13129;48.012;10.352;2024-02-26T17:21:25;8.50;99.40
25170;DHT22;13129;48.012;10.352;2024-02-26T17:23:51;8.50;99.50
25170;DHT22;13129;48.012;10.352;2024-02-26T17:26:17;8.50;99.60
25170;DHT22;13129;48.012;10.352;2024-02-26T17:28:43;8.50;99.60
25170;DHT22;13129;48.012;10.352;2024-02-26T17:31:09;8.40;99.80
25170;DHT22;13129;48.012;10.352;2024-02-26T17:33:36;8.40;99.90
25170;DHT22;13129;48.012;10.352;2024-02-26T17:36:01;8.40;99.90
25170;DHT22;13129;48.012;10.352;2024-02-26T17:38:27;8.30;99.90
25170;DHT22;13129;48.012;10.352;2024-02-26T17:40:53;8.20;99.90
25170;DHT22;13129;48.012;10.352;2024-02-26T17:43:19;8.20;99.90
25170;DHT22;13129;48.012;10.352;2024-02-26T17:45:45;8.10;99.90
25170;DHT22;13129;48.012;10.352;2024-02-26T17:48:11;8.10;99.90
25170;DHT22;13129;48.012;10.352;2024-02-26T17:50:38;8.10;99.90
25170;DHT22;13129;48.012;10.352;2024-02-26T17:53:03;8.00;99.90
25170;DHT22;13129;48.012;10.352;2024-02-26T17:55:29;8.00;99.90
25170;DHT22;13129;48.012;10.352;2024-02-26T17:57:55;7.90;99.90
25170;DHT22;13129;48.012;10.352;2024-02-26T18:00:21;7.90;99.90
25170;DHT22;13129;48.012;10.352;2024-02-26T18:02:46;7.90;99.90
25170;DHT22;13129;48.012;10.352;2024-02-26T18:05:12;7.80;99.90
25170;DHT22;13129;48.012;10.352;2024-02-26T18:07:38;7.80;99.90
25170;DHT22;13129;48.012;10.352;2024-02-26T18:10:05;7.80;99.90
25170;DHT22;13129;48.012;10.352;2024-02-26T18:12:35;7.80;99.90
25170;DHT22;13129;48.012;10.352;2024-02-26T18:15:05;7.70;99.90
25170;DHT22;13129;48.012;10.352;2024-02-26T18:17:33;7.70;99.90
25170;DHT22;13129;48.012;10.352;2024-02-26T18:19:59;7.70;99.90
25170;DHT22;13129;48.012;10.352;2024-02-26T18:22:24;7.70;99.90
25170;DHT22;13129;48.012;10.352;2024-02-26T18:24:50;7.60;99.90
25170;DHT22;13129;48.012;10.352;2024-02-26T18:27:16;7.60;99.90
25170;DHT22;13129;48.012;10.352;2024-02-26T18:29:41;7.60;99.90
25170;DHT22;13129;48.012;10.352;2024-02-26T18:32:07;7.50;99.90
25170;DHT22;13129;48.012;10.352;2024-02-26T18:34:33;7.50;99.90
25170;DHT22;13129;48.012;10.352;2024-02-26T18:37:01;7.40;99.90
25170;DHT22;13129;48.012;10.352;2024-02-26T18:39:27;7.40;99.90
25170;DHT22;13129;48.012;10.352;2024-02-26T18:41:53;7.40;99.90
25170;DHT22;13129;48.012;10.352;2024-02-26T18:44:21;7.30;99.90
25170;DHT22;13129;48.012;10.352;2024-02-26T18:46:46;7.20;99.90
25170;DHT22;13129;48.012;10.352;2024-02-26T18:49:12;7.10;99.90
25170;DHT22;13129;48.012;10.352;2024-02-26T18:51:38;7.00;99.90
25170;DHT22;13129;48.012;10.352;2024-02-26T18:54:05;7.00;99.90
25170;DHT22;13129;48.012;10.352;2024-02-26T18:56:31;7.00;99.90
25170;DHT22;13129;48.012;10.352;2024-02-26T18:58:57;6.90;99.90
25170;DHT22;13129;48.012;10.352;2024-02-26T19:01:23;6.90;99.90
25170;DHT22;13129;48.012;10.352;2024-02-26T19:03:49;6.90;99.90
25170;DHT22;13129;48.012;10.352;2024-02-26T19:06:14;7.00;99.90
25170;DHT22;13129;48.012;10.352;2024-02-26T19:08:40;6.80;99.90
25170;DHT22;13129;48.012;10.352;2024-02-26T19:11:09;6.80;99.90
25170;DHT22;13129;48.012;10.352;2024-02-26T19:13:35;6.80;99.90
25170;DHT22;13129;48.012;10.352;2024-02-26T19:16:01;6.70;99.90
25170;DHT22;13129;48.012;10.352;2024-02-26T19:18:28;6.60;99.90
25170;DHT22;13129;48.012;10.352;2024-02-26T19:20:54;6.60;99.90
25170;DHT22;13129;48.012;10.352;2024-02-26T19:23:19;6.70;99.90
25170;DHT22;13129;48.012;10.352;2024-02-26T19:25:45;6.60;99.90
25170;DHT22;13129;48.012;10.352;2024-02-26T19:28:10;6.50;99.90
25170;DHT22;13129;48.012;10.352;2024-02-26T19:30:38;6.40;99.90
25170;DHT22;13129;48.012;10.352;2024-02-26T19:33:04;6.50;99.90
25170;DHT22;13129;48.012;10.352;2024-02-26T19:35:30;6.50;99.90
25170;DHT22;13129;48.012;10.352;2024-02-26T19:37:56;6.50;99.90
25170;DHT22;13129;48.012;10.352;2024-02-26T19:40:22;6.60;99.90
25170;DHT22;13129;48.012;10.352;2024-02-26T19:42:48;6.60;99.90
25170;DHT22;13129;48.012;10.352;2024-02-26T19:45:14;6.60;99.90
25170;DHT22;13129;48.012;10.352;2024-02-26T19:47:40;6.60;99.90
25170;DHT22;13129;48.012;10.352;2024-02-26T19:50:07;6.60;99.90
25170;DHT22;13129;48.012;10.352;2024-02-26T19:52:33;6.70;99.90
25170;DHT22;13129;48.012;10.352;2024-02-26T19:54:58;6.70;99.90
25170;DHT22;13129;48.012;10.352;2024-02-26T19:57:24;6.70;99.90
25170;DHT22;13129;48.012;10.352;2024-02-26T19:59:50;6.80;99.90